6NC8 weather

Marchmont Plantation Airpark
Advance, North Carolina, United States

Public forecast

Using degrees Fahrenheit for public forecast. Weather courtesy of forecast.io.

METAR (pilot weather report)

Closest report is Davidson County Airport, 10.2 nm (18.9 km) SSE. Retrieved 2019/09/18 08:35 UTC (0 seconds ago):

KEXX 180835Z AUTO 08005KT 10SM SCT021 OVC047 21/19 A3011 RMK AO2 T02070189

TAF (pilot weather forecast)

Closest forecast is Smith Reynolds Airport, 14.1 nm (26.2 km) NE. Retrieved 2019/09/18 06:42 UTC (1 hour ago):

TAF KINT 180536Z 1806/1906 06011KT P6SM SCT025 BKN035 FM181700 05007KT P6SM SCT050